Time;durP1;ratioP1;P1;durP2;ratioP2;P2;SDS_P1;SDS_P2;PMS_P1;PMS_P2;Temp;Humidity;BMP_temperature;BMP_pressure;BME280_temperature;BME280_humidity;BME280_pressure;Samples;Min_cycle;Max_cycle;Signal;HPM_P1;HPM_P2
2024/04/19 00:00:55;;;;;;;7.10;2.17;;;3.10;99.90;;;;;;4417891;26;20314;-57
2024/04/19 00:02:56;;;;;;;2.10;1.83;;;3.10;99.90;;;;;;4420205;26;20243;-56
2024/04/19 00:04:58;;;;;;;4.37;2.23;;;3.10;99.90;;;;;;4418167;26;20567;-57
2024/04/19 00:07:00;;;;;;;5.00;2.07;;;3.00;99.90;;;;;;4420198;26;20314;-55
2024/04/19 00:09:01;;;;;;;3.07;2.27;;;3.00;99.90;;;;;;4418859;26;20223;-55
2024/04/19 00:11:03;;;;;;;3.67;2.07;;;3.00;99.90;;;;;;4419536;26;20231;-54
2024/04/19 00:13:04;;;;;;;2.57;1.93;;;3.00;99.90;;;;;;4419440;26;20232;-55
2024/04/19 00:15:06;;;;;;;2.70;1.60;;;3.00;99.90;;;;;;4418116;26;20239;-55
2024/04/19 00:17:08;;;;;;;4.00;2.20;;;2.90;99.90;;;;;;4419208;26;20595;-57
2024/04/19 00:19:09;;;;;;;3.30;2.13;;;2.90;99.90;;;;;;4419261;26;20230;-58
2024/04/19 00:21:11;;;;;;;3.20;2.10;;;2.90;99.90;;;;;;4419908;26;20783;-58
2024/04/19 00:23:12;;;;;;;4.67;1.90;;;2.90;99.90;;;;;;4419754;26;20231;-57
2024/04/19 00:25:13;;;;;;;2.90;1.67;;;2.90;99.90;;;;;;4420882;26;20231;-54
2024/04/19 00:27:14;;;;;;;3.07;1.90;;;2.90;99.90;;;;;;4419028;26;20224;-55
2024/04/19 00:29:16;;;;;;;3.97;1.70;;;2.90;99.90;;;;;;4420585;26;20572;-56
2024/04/19 00:31:17;;;;;;;2.60;1.83;;;2.90;99.90;;;;;;4419467;26;20601;-56
2024/04/19 00:33:18;;;;;;;2.87;1.93;;;2.90;99.90;;;;;;4420706;26;20247;-56
2024/04/19 00:35:20;;;;;;;2.53;1.97;;;2.90;99.90;;;;;;4419495;26;20726;-57
2024/04/19 00:37:21;;;;;;;3.90;2.60;;;2.90;99.90;;;;;;4419385;26;20848;-57
2024/04/19 00:39:22;;;;;;;3.83;2.07;;;2.90;99.90;;;;;;4419045;26;20235;-58
2024/04/19 00:41:24;;;;;;;2.73;1.67;;;2.80;99.90;;;;;;4420234;26;20239;-56
2024/04/19 00:43:25;;;;;;;3.27;2.00;;;2.90;99.90;;;;;;4420197;26;20322;-57
2024/04/19 00:45:33;;;;;;;1.90;1.70;;;2.90;99.90;;;;;;4419767;26;20232;-57
2024/04/19 00:47:34;;;;;;;3.63;1.87;;;2.90;99.90;;;;;;4420014;26;20325;-56
2024/04/19 00:49:35;;;;;;;3.37;1.67;;;2.90;99.90;;;;;;4418942;26;20327;-52
2024/04/19 00:51:38;;;;;;;3.37;1.87;;;2.90;99.90;;;;;;4419639;26;20321;-57
2024/04/19 00:53:39;;;;;;;2.97;2.13;;;2.80;99.90;;;;;;4418709;26;20658;-60
2024/04/19 00:55:41;;;;;;;3.77;1.60;;;2.80;99.90;;;;;;4419636;26;20312;-54
2024/04/19 00:57:44;;;;;;;2.90;1.70;;;2.80;99.90;;;;;;4417516;26;20594;-54
2024/04/19 00:59:46;;;;;;;4.60;2.40;;;2.80;99.90;;;;;;4420004;26;20224;-57
2024/04/19 01:01:47;;;;;;;2.43;1.40;;;2.80;99.90;;;;;;4417315;26;20686;-55
2024/04/19 01:03:49;;;;;;;6.97;1.90;;;2.80;99.90;;;;;;4419515;26;20618;-55
2024/04/19 01:05:50;;;;;;;3.57;1.93;;;2.80;99.90;;;;;;4419294;26;20312;-55
2024/04/19 01:07:52;;;;;;;2.90;2.17;;;2.80;99.90;;;;;;4417971;26;20227;-60
2024/04/19 01:09:53;;;;;;;4.03;1.83;;;2.80;99.90;;;;;;4417710;26;20256;-56
2024/04/19 01:11:55;;;;;;;2.40;1.70;;;2.70;99.90;;;;;;4419456;26;20231;-56
2024/04/19 01:13:56;;;;;;;1.73;1.47;;;2.80;99.90;;;;;;4419561;26;20762;-57
2024/04/19 01:15:58;;;;;;;3.37;1.43;;;2.70;99.90;;;;;;4418662;26;20224;-57
2024/04/19 01:18:00;;;;;;;3.73;1.80;;;2.70;99.90;;;;;;4418431;26;20333;-56
2024/04/19 01:20:01;;;;;;;4.23;1.47;;;2.70;99.90;;;;;;4419829;26;20306;-53
2024/04/19 01:22:04;;;;;;;4.03;1.50;;;2.70;99.90;;;;;;4419919;26;21300;-54
2024/04/19 01:24:26;;;;;;;4.00;1.53;;;2.70;99.90;;;;;;4418741;26;20240;-55
2024/04/19 01:26:27;;;;;;;2.83;1.90;;;2.70;99.90;;;;;;4415554;26;20239;-55
2024/04/19 01:28:29;;;;;;;2.23;1.70;;;2.70;99.90;;;;;;4419075;26;20326;-57
2024/04/19 01:30:30;;;;;;;4.27;1.70;;;2.70;99.90;;;;;;4418673;26;20227;-52
2024/04/19 01:32:32;;;;;;;2.53;1.73;;;2.60;99.90;;;;;;4418078;26;20333;-53
2024/04/19 01:34:33;;;;;;;3.30;1.50;;;2.60;99.90;;;;;;4419368;26;20236;-51
2024/04/19 01:36:34;;;;;;;2.53;1.80;;;2.60;99.90;;;;;;4417048;26;20223;-53
2024/04/19 01:38:35;;;;;;;3.17;2.20;;;2.60;99.90;;;;;;4419506;26;20223;-57
2024/04/19 01:40:37;;;;;;;2.90;1.73;;;2.60;99.90;;;;;;4418655;26;20329;-55
2024/04/19 01:42:38;;;;;;;5.17;2.13;;;2.60;99.90;;;;;;4419685;26;20303;-48
2024/04/19 01:44:39;;;;;;;5.57;1.87;;;2.50;99.90;;;;;;4418532;26;20231;-59
2024/04/19 01:46:41;;;;;;;2.40;1.83;;;2.50;99.90;;;;;;4418821;26;20701;-55
2024/04/19 01:48:42;;;;;;;4.30;1.73;;;2.40;99.90;;;;;;4418845;26;20654;-56
2024/04/19 01:50:43;;;;;;;3.03;1.60;;;2.40;99.90;;;;;;4418559;26;20306;-53
2024/04/19 01:52:46;;;;;;;5.27;1.43;;;2.40;99.90;;;;;;4418629;26;20235;-56
2024/04/19 01:54:47;;;;;;;4.00;1.90;;;2.40;99.90;;;;;;4418279;26;20896;-54
2024/04/19 01:56:49;;;;;;;2.90;1.57;;;2.40;99.90;;;;;;4418234;26;20239;-54
2024/04/19 01:58:50;;;;;;;3.80;1.80;;;2.40;99.90;;;;;;4417630;26;20223;-54
2024/04/19 02:00:51;;;;;;;3.87;1.60;;;2.40;99.90;;;;;;4418634;26;20224;-55
2024/04/19 02:02:53;;;;;;;2.63;1.70;;;2.40;99.90;;;;;;4416619;26;20239;-52
2024/04/19 02:04:56;;;;;;;3.43;1.93;;;2.40;99.90;;;;;;4418113;26;20350;-54
2024/04/19 02:06:57;;;;;;;1.70;1.47;;;2.40;99.90;;;;;;4416806;26;20231;-54
2024/04/19 02:08:58;;;;;;;2.60;1.90;;;2.50;99.90;;;;;;4418692;26;20322;-57
2024/04/19 02:11:03;;;;;;;2.27;1.40;;;2.50;99.90;;;;;;4415536;26;20239;-57
2024/04/19 02:13:04;;;;;;;1.57;1.40;;;2.50;99.90;;;;;;4418637;26;20318;-57
2024/04/19 02:15:06;;;;;;;2.10;1.50;;;2.50;99.90;;;;;;4417732;26;20306;-58
2024/04/19 02:17:07;;;;;;;3.27;1.70;;;2.50;99.90;;;;;;4418764;26;20235;-56
2024/04/19 02:19:08;;;;;;;2.47;1.70;;;2.50;99.90;;;;;;4418597;26;20742;-57
2024/04/19 02:21:09;;;;;;;1.73;1.60;;;2.50;99.90;;;;;;4419298;26;20297;-58
2024/04/19 02:23:11;;;;;;;2.37;1.60;;;2.40;99.90;;;;;;4418262;26;20227;-56
2024/04/19 02:25:12;;;;;;;6.30;2.77;;;2.40;99.90;;;;;;4420661;26;20621;-58
2024/04/19 02:31:53;;;;;;;1.57;1.20;;;2.30;99.90;;;;;;4420807;26;20665;-57
2024/04/19 02:33:54;;;;;;;4.70;1.83;;;2.30;99.90;;;;;;4421494;26;20465;-58
2024/04/19 02:35:55;;;;;;;2.13;1.20;;;2.30;99.90;;;;;;4420646;26;20227;-55
2024/04/19 02:37:57;;;;;;;4.23;2.17;;;2.30;99.90;;;;;;4420248;26;20239;-58
2024/04/19 02:39:58;;;;;;;3.77;2.00;;;2.30;99.90;;;;;;4420084;26;20337;-58
2024/04/19 02:41:59;;;;;;;3.77;2.00;;;2.30;99.90;;;;;;4421164;26;20223;-55
2024/04/19 02:44:00;;;;;;;6.63;1.90;;;2.30;99.90;;;;;;4420648;26;20239;-53
2024/04/19 02:46:03;;;;;;;1.57;1.33;;;2.30;99.90;;;;;;4418652;26;20215;-57
2024/04/19 02:48:04;;;;;;;1.90;1.53;;;2.30;99.90;;;;;;4421311;26;20323;-55
2024/04/19 02:50:06;;;;;;;2.87;2.00;;;2.20;99.90;;;;;;4419549;26;20651;-55
2024/04/19 02:52:07;;;;;;;2.17;1.40;;;2.20;99.90;;;;;;4422230;26;20240;-52
2024/04/19 02:54:08;;;;;;;4.03;1.83;;;2.30;99.90;;;;;;4392904;26;20236;-58
2024/04/19 02:56:10;;;;;;;2.93;1.90;;;2.20;99.90;;;;;;4401176;26;20228;-58
2024/04/19 02:58:11;;;;;;;2.73;1.67;;;2.20;99.90;;;;;;4418496;26;20329;-54
2024/04/19 03:00:13;;;;;;;3.90;2.33;;;2.30;99.90;;;;;;4420366;26;20316;-55
2024/04/19 03:02:14;;;;;;;2.10;1.67;;;2.30;99.90;;;;;;4419769;26;20326;-54
2024/04/19 03:04:17;;;;;;;4.20;2.13;;;2.20;99.90;;;;;;4420391;26;21059;-57
2024/04/19 03:06:18;;;;;;;6.73;3.17;;;2.20;99.90;;;;;;4420895;26;20239;-54
2024/04/19 03:08:23;;;;;;;12.33;5.57;;;2.20;99.90;;;;;;4420593;26;20330;-52
2024/04/19 03:10:24;;;;;;;12.20;6.10;;;2.20;99.90;;;;;;4421149;26;20866;-57
2024/04/19 03:12:26;;;;;;;13.93;5.57;;;2.10;99.90;;;;;;4419853;26;20235;-56
2024/04/19 03:14:27;;;;;;;13.17;5.43;;;2.10;99.90;;;;;;4421080;26;20227;-52
2024/04/19 03:16:28;;;;;;;6.60;4.40;;;2.10;99.90;;;;;;4419267;26;20325;-57
2024/04/19 03:18:30;;;;;;;6.93;3.60;;;2.00;99.90;;;;;;4420822;26;20227;-57
2024/04/19 03:20:31;;;;;;;5.80;3.50;;;1.90;99.90;;;;;;4420611;26;20244;-60
2024/04/19 03:22:32;;;;;;;7.33;3.57;;;1.90;99.90;;;;;;4421359;26;20235;-58
2024/04/19 03:24:34;;;;;;;7.10;3.30;;;1.90;99.90;;;;;;4419964;26;20227;-57
2024/04/19 03:26:36;;;;;;;5.73;4.10;;;1.90;99.90;;;;;;4419454;26;20577;-55
2024/04/19 03:28:37;;;;;;;5.57;3.43;;;1.90;99.90;;;;;;4419920;26;20239;-53
2024/04/19 03:30:38;;;;;;;5.87;3.50;;;1.90;99.90;;;;;;4419551;26;20325;-58
2024/04/19 03:32:42;;;;;;;7.00;3.60;;;2.00;99.90;;;;;;4418623;26;20231;-58
2024/04/19 03:34:43;;;;;;;8.87;3.53;;;2.00;99.90;;;;;;4419630;26;20556;-57
2024/04/19 03:36:44;;;;;;;9.40;3.73;;;2.00;99.90;;;;;;4417348;26;20793;-55
2024/04/19 03:38:47;;;;;;;8.20;4.07;;;1.90;99.90;;;;;;4419810;26;20235;-57
2024/04/19 03:40:53;;;;;;;9.40;4.13;;;1.90;99.90;;;;;;4418490;26;20678;-52
2024/04/19 03:42:58;;;;;;;14.93;4.33;;;2.00;99.90;;;;;;4420998;26;20714;-54
2024/04/19 03:45:45;;;;;;;7.27;3.67;;;2.00;99.90;;;;;;4420334;26;20319;-55
2024/04/19 03:47:21;;;;;;;5.17;3.17;;;1.90;99.90;;;;;;4401425;26;20622;-55
2024/04/19 03:49:22;;;;;;;6.00;4.00;;;2.10;99.90;;;;;;4420251;26;20809;-57
2024/04/19 03:51:23;;;;;;;7.57;5.00;;;2.30;99.90;;;;;;4391422;27;20228;-56
2024/04/19 03:53:25;;;;;;;8.83;5.30;;;2.60;99.90;;;;;;4392838;27;20317;-54
2024/04/19 03:55:26;;;;;;;11.57;5.57;;;2.80;99.90;;;;;;4389788;27;20350;-57
2024/04/19 03:57:27;;;;;;;8.03;4.33;;;3.10;99.90;;;;;;4392786;27;20295;-56
2024/04/19 03:59:29;;;;;;;9.83;4.03;;;3.30;99.90;;;;;;4390351;26;20800;-58
2024/04/19 04:01:30;;;;;;;14.10;4.63;;;3.20;99.90;;;;;;4392202;26;20220;-56
2024/04/19 04:03:32;;;;;;;10.37;5.57;;;3.00;99.90;;;;;;4391887;27;20224;-58
2024/04/19 04:05:36;;;;;;;13.70;5.27;;;3.00;99.90;;;;;;4397282;26;20240;-58
2024/04/19 04:07:38;;;;;;;10.10;4.60;;;3.20;99.90;;;;;;4417950;26;20312;-57
2024/04/19 04:09:39;;;;;;;10.10;4.50;;;3.60;99.90;;;;;;4419708;26;20332;-54
2024/04/19 04:11:40;;;;;;;14.90;4.20;;;4.00;99.90;;;;;;4419370;26;20215;-54
2024/04/19 04:13:41;;;;;;;10.70;4.57;;;4.50;99.90;;;;;;4419262;26;20726;-53
2024/04/19 04:15:43;;;;;;;12.37;5.23;;;5.10;99.90;;;;;;4419187;26;20224;-52
2024/04/19 04:17:44;;;;;;;21.10;6.13;;;5.70;99.90;;;;;;4420802;26;20223;-56
2024/04/19 04:19:45;;;;;;;16.87;5.43;;;6.20;99.90;;;;;;4418882;26;20828;-54
2024/04/19 04:21:46;;;;;;;12.87;5.07;;;6.70;99.90;;;;;;4419655;26;19996;-56
2024/04/19 04:23:48;;;;;;;9.10;4.07;;;6.60;99.90;;;;;;4420148;26;20008;-51
2024/04/19 04:25:49;;;;;;;11.17;4.43;;;6.60;99.90;;;;;;4418806;26;20415;-55
2024/04/19 04:27:50;;;;;;;13.67;4.27;;;6.60;99.90;;;;;;4420295;26;19997;-52
2024/04/19 04:29:51;;;;;;;12.67;4.37;;;6.40;99.90;;;;;;4417131;26;20009;-58
2024/04/19 04:31:53;;;;;;;8.73;4.20;;;6.30;99.90;;;;;;4420259;26;20012;-57
2024/04/19 04:33:54;;;;;;;5.43;3.10;;;6.20;99.90;;;;;;4419058;26;20074;-54
2024/04/19 04:35:55;;;;;;;9.40;3.57;;;6.10;99.90;;;;;;4420191;26;20070;-55
2024/04/19 04:37:56;;;;;;;7.43;3.37;;;6.00;99.90;;;;;;4418274;26;19997;-54
2024/04/19 04:39:58;;;;;;;12.33;3.87;;;5.90;99.90;;;;;;4420163;26;20010;-57
2024/04/19 04:41:59;;;;;;;7.60;3.53;;;5.60;99.90;;;;;;4418452;26;20009;-55
2024/04/19 04:44:00;;;;;;;4.93;3.13;;;5.40;99.90;;;;;;4420074;26;20128;-56
2024/04/19 04:46:01;;;;;;;6.13;2.90;;;5.30;99.90;;;;;;4417739;26;20341;-55
2024/04/19 04:48:03;;;;;;;3.93;2.53;;;5.20;99.90;;;;;;4415652;26;20089;-57
2024/04/19 04:50:05;;;;;;;4.20;2.10;;;5.20;99.90;;;;;;4399673;26;20021;-57
2024/04/19 04:52:06;;;;;;;3.47;2.13;;;5.20;99.90;;;;;;4403935;26;20085;-57
2024/04/19 04:54:07;;;;;;;5.77;2.20;;;5.00;99.90;;;;;;4402105;26;20450;-58
2024/04/19 04:56:09;;;;;;;4.47;2.70;;;4.90;99.90;;;;;;4418841;26;19997;-52
2024/04/19 04:58:10;;;;;;;10.77;3.43;;;4.90;99.90;;;;;;4419683;26;20009;-60
2024/04/19 05:00:12;;;;;;;8.10;3.80;;;4.80;99.90;;;;;;4419214;26;20069;-56
2024/04/19 05:02:13;;;;;;;13.47;5.00;;;4.70;99.90;;;;;;4418878;26;20120;-55
2024/04/19 05:04:14;;;;;;;7.00;3.63;;;4.70;99.90;;;;;;4418628;26;20009;-56
2024/04/19 05:06:16;;;;;;;10.43;5.60;;;4.70;99.90;;;;;;4420383;26;20077;-56
2024/04/19 05:08:18;;;;;;;10.30;6.30;;;4.70;99.90;;;;;;4418598;26;20008;-58
2024/04/19 05:10:20;;;;;;;9.17;4.90;;;4.70;99.90;;;;;;4420358;26;20073;-58
2024/04/19 05:12:23;;;;;;;6.87;3.90;;;4.60;99.90;;;;;;4418709;26;20073;-55
2024/04/19 05:14:24;;;;;;;8.77;3.80;;;4.60;99.90;;;;;;4419679;26;20070;-56
2024/04/19 05:16:25;;;;;;;6.80;3.07;;;4.50;99.90;;;;;;4418067;26;20012;-57
2024/04/19 05:18:27;;;;;;;3.57;2.63;;;4.50;99.90;;;;;;4419621;26;20410;-58
2024/04/19 05:20:28;;;;;;;5.63;2.27;;;4.50;99.90;;;;;;4412922;26;20386;-52
2024/04/19 05:22:29;;;;;;;4.10;2.57;;;4.50;99.90;;;;;;4400012;26;20083;-54
2024/04/19 05:24:31;;;;;;;2.43;1.97;;;4.60;99.90;;;;;;4390065;26;20017;-55
2024/04/19 05:26:33;;;;;;;4.83;2.13;;;4.60;99.90;;;;;;4409102;26;20075;-57
2024/04/19 05:28:34;;;;;;;4.23;2.27;;;4.70;99.90;;;;;;4418719;26;20432;-55
2024/04/19 05:30:35;;;;;;;3.93;1.93;;;4.80;99.90;;;;;;4397718;26;20083;-57
2024/04/19 05:32:37;;;;;;;3.90;1.90;;;4.80;99.90;;;;;;4391958;27;20013;-58
2024/04/19 05:34:38;;;;;;;5.33;2.10;;;4.90;99.90;;;;;;4390463;27;20075;-57
2024/04/19 05:36:39;;;;;;;3.37;1.80;;;4.90;99.90;;;;;;4406275;26;20074;-57
2024/04/19 05:38:41;;;;;;;3.80;2.20;;;5.00;99.90;;;;;;4418398;26;20012;-59
2024/04/19 05:40:42;;;;;;;6.20;2.23;;;5.00;99.90;;;;;;4418380;26;20012;-58
2024/04/19 05:42:43;;;;;;;4.23;2.10;;;5.00;99.90;;;;;;4417492;26;20016;-57
2024/04/19 05:44:44;;;;;;;2.93;1.77;;;4.90;99.90;;;;;;4418474;26;20078;-58
2024/04/19 05:46:46;;;;;;;2.87;2.17;;;4.90;99.90;;;;;;4410714;26;20095;-57
2024/04/19 05:48:47;;;;;;;4.23;2.17;;;5.00;99.90;;;;;;4415024;26;20097;-56
2024/04/19 05:50:49;;;;;;;3.87;2.10;;;5.00;99.90;;;;;;4417629;26;20005;-57
2024/04/19 05:52:50;;;;;;;6.20;3.37;;;5.10;99.90;;;;;;4407558;26;20016;-53
2024/04/19 05:54:52;;;;;;;6.10;2.00;;;5.10;99.90;;;;;;4415081;26;20073;-56
2024/04/19 05:56:53;;;;;;;4.07;1.90;;;5.10;99.90;;;;;;4416859;26;20372;-54
2024/04/19 05:58:57;;;;;;;4.10;2.10;;;5.20;99.90;;;;;;4415284;26;20151;-57
2024/04/19 06:00:58;;;;;;;8.23;3.30;;;5.20;99.90;;;;;;4419551;26;20016;-55
2024/04/19 06:02:59;;;;;;;5.40;3.10;;;5.20;99.90;;;;;;4420435;26;20012;-55
2024/04/19 06:05:01;;;;;;;6.03;2.67;;;5.30;99.90;;;;;;4417575;26;20005;-56
2024/04/19 06:07:02;;;;;;;4.07;2.90;;;5.30;99.90;;;;;;4419384;26;20001;-58
2024/04/19 06:09:04;;;;;;;4.80;2.53;;;5.40;99.90;;;;;;4398287;26;20074;-57
2024/04/19 06:11:05;;;;;;;6.63;2.73;;;5.50;99.90;;;;;;4408627;26;20413;-58
2024/04/19 06:13:06;;;;;;;5.60;2.33;;;5.60;99.90;;;;;;4403461;26;20002;-58
2024/04/19 06:15:08;;;;;;;5.93;2.10;;;5.60;99.90;;;;;;4394652;26;20005;-56
2024/04/19 06:17:09;;;;;;;4.40;2.87;;;5.70;99.90;;;;;;4420635;26;20070;-58
2024/04/19 06:19:10;;;;;;;4.63;2.77;;;5.80;99.90;;;;;;4398384;26;20418;-54
2024/04/19 06:21:12;;;;;;;5.93;2.03;;;5.80;99.90;;;;;;4401220;26;20441;-57
2024/04/19 06:23:13;;;;;;;4.13;2.17;;;5.90;99.90;;;;;;4405033;26;20078;-55
2024/04/19 06:25:14;;;;;;;3.10;2.20;;;5.90;99.90;;;;;;4393244;27;20005;-57
2024/04/19 06:27:15;;;;;;;4.67;2.20;;;6.00;99.90;;;;;;4420038;26;20013;-55
2024/04/19 06:29:18;;;;;;;4.53;2.40;;;5.90;99.90;;;;;;4395971;26;20412;-56
2024/04/19 06:31:20;;;;;;;4.37;2.10;;;6.00;99.90;;;;;;4391639;27;20014;-55
2024/04/19 06:33:21;;;;;;;3.97;2.60;;;6.10;99.90;;;;;;4392112;26;20562;-58
2024/04/19 06:35:22;;;;;;;4.17;2.33;;;6.20;99.90;;;;;;4397734;26;20413;-59
2024/04/19 06:37:24;;;;;;;4.20;1.87;;;6.20;99.90;;;;;;4419922;26;20422;-55
2024/04/19 06:39:26;;;;;;;16.27;4.03;;;6.30;99.90;;;;;;4394603;26;20082;-58
2024/04/19 06:41:27;;;;;;;6.97;2.60;;;6.30;99.90;;;;;;4420537;26;20374;-60
2024/04/19 06:43:28;;;;;;;4.10;2.33;;;6.40;99.90;;;;;;4419711;26;20013;-54
2024/04/19 06:45:30;;;;;;;3.23;1.93;;;6.50;99.90;;;;;;4419893;26;20082;-57
2024/04/19 06:47:34;;;;;;;8.03;2.50;;;6.60;99.90;;;;;;4418924;26;20005;-57
2024/04/19 06:49:35;;;;;;;4.20;2.50;;;6.70;99.90;;;;;;4395805;26;20079;-57
2024/04/19 06:51:37;;;;;;;3.83;2.33;;;6.80;99.90;;;;;;4412621;26;20162;-59
2024/04/19 06:53:38;;;;;;;5.13;2.83;;;6.90;99.90;;;;;;4417183;26;20074;-57
2024/04/19 06:55:40;;;;;;;4.13;2.60;;;7.00;99.90;;;;;;4418838;26;20013;-60
2024/04/19 06:57:41;;;;;;;4.43;2.43;;;7.00;99.90;;;;;;4420606;26;20441;-58
2024/04/19 06:59:42;;;;;;;5.20;2.40;;;7.10;99.90;;;;;;4416940;26;20012;-56
2024/04/19 07:01:44;;;;;;;5.63;2.37;;;7.10;99.90;;;;;;4420523;26;20005;-58
2024/04/19 07:03:45;;;;;;;9.13;2.50;;;7.10;99.90;;;;;;4420189;26;20021;-55
2024/04/19 07:05:48;;;;;;;4.50;2.50;;;7.00;99.90;;;;;;4420184;26;20952;-56
2024/04/19 07:07:49;;;;;;;4.10;2.50;;;6.90;99.90;;;;;;4419468;26;20004;-59
2024/04/19 07:09:51;;;;;;;3.47;2.73;;;6.70;99.90;;;;;;4390490;26;20071;-54
2024/04/19 07:11:53;;;;;;;19.83;3.17;;;6.60;99.90;;;;;;4417049;26;20431;-57
2024/04/19 07:13:54;;;;;;;6.97;2.77;;;6.50;99.90;;;;;;4419397;26;20364;-54
2024/04/19 07:15:55;;;;;;;4.30;2.73;;;6.40;99.90;;;;;;4421592;26;20693;-50
2024/04/19 07:17:56;;;;;;;5.13;2.73;;;6.40;99.90;;;;;;4418572;26;20075;-57
2024/04/19 07:19:58;;;;;;;7.53;2.70;;;6.40;99.90;;;;;;4404806;26;20078;-55
2024/04/19 07:21:59;;;;;;;3.63;2.80;;;6.40;99.90;;;;;;4419399;26;20024;-58
2024/04/19 07:24:00;;;;;;;6.97;3.23;;;6.50;99.90;;;;;;4421234;26;20082;-58
2024/04/19 07:26:01;;;;;;;6.27;4.33;;;6.50;99.90;;;;;;4419755;26;20185;-54
2024/04/19 07:28:03;;;;;;;5.37;3.73;;;6.50;99.90;;;;;;4420947;26;20000;-57
2024/04/19 07:30:05;;;;;;;5.70;3.67;;;6.50;99.90;;;;;;4392337;27;20013;-59
2024/04/19 07:32:06;;;;;;;7.40;3.50;;;6.60;99.90;;;;;;4416703;26;20860;-60
2024/04/19 07:34:07;;;;;;;5.57;3.97;;;6.70;99.90;;;;;;4421230;26;20864;-62
2024/04/19 07:36:10;;;;;;;6.47;3.53;;;6.80;99.90;;;;;;4412853;26;20005;-62
2024/04/19 07:38:11;;;;;;;3.53;2.50;;;6.90;99.90;;;;;;4395891;26;20346;-60
2024/04/19 07:40:13;;;;;;;2.13;1.77;;;7.10;99.90;;;;;;4389694;27;20584;-60
2024/04/19 07:42:14;;;;;;;2.40;1.90;;;7.40;99.90;;;;;;4392065;27;20078;-59
2024/04/19 07:44:15;;;;;;;3.97;1.67;;;7.70;99.90;;;;;;4409907;26;20058;-59
2024/04/19 07:46:16;;;;;;;2.37;1.90;;;8.00;99.90;;;;;;4421795;26;20001;-59
2024/04/19 07:48:18;;;;;;;4.70;2.30;;;8.30;99.90;;;;;;4398006;26;20017;-58
2024/04/19 07:50:20;;;;;;;2.43;1.33;;;8.90;99.90;;;;;;4391379;27;20096;-60
2024/04/19 07:52:21;;;;;;;4.77;1.47;;;9.30;99.90;;;;;;4398127;26;20081;-60
2024/04/19 07:54:22;;;;;;;3.70;1.47;;;9.60;99.90;;;;;;4419894;26;20055;-57
2024/04/19 07:56:25;;;;;;;1.67;1.40;;;9.70;99.90;;;;;;4419914;26;20009;-56
2024/04/19 07:58:26;;;;;;;4.13;1.73;;;9.90;99.90;;;;;;4419849;26;20013;-56
2024/04/19 08:00:27;;;;;;;3.97;2.33;;;10.00;99.90;;;;;;4418640;26;20016;-57
2024/04/19 08:02:29;;;;;;;3.83;1.77;;;10.20;99.90;;;;;;4418591;26;20055;-62
2024/04/19 08:04:30;;;;;;;2.17;1.53;;;10.30;99.90;;;;;;4419755;26;20077;-57
2024/04/19 08:06:31;;;;;;;2.53;1.40;;;10.50;99.90;;;;;;4419185;26;20415;-56
2024/04/19 08:08:33;;;;;;;4.67;2.47;;;10.40;99.90;;;;;;4396917;26;20084;-58
2024/04/19 08:10:34;;;;;;;4.50;2.37;;;10.10;99.90;;;;;;4390354;27;20532;-57
2024/04/19 08:12:35;;;;;;;4.23;1.77;;;10.00;99.90;;;;;;4390704;27;20182;-57
2024/04/19 08:14:36;;;;;;;3.37;1.60;;;10.10;99.90;;;;;;4405690;26;20371;-58
2024/04/19 08:16:38;;;;;;;2.40;1.43;;;10.20;99.90;;;;;;4421643;26;20017;-55
2024/04/19 08:18:39;;;;;;;2.27;1.33;;;10.20;99.90;;;;;;4417943;26;20078;-54
2024/04/19 08:20:40;;;;;;;1.63;1.17;;;10.30;99.90;;;;;;4419257;26;20078;-55
2024/04/19 08:22:41;;;;;;;14.27;4.07;;;10.40;99.90;;;;;;4409138;26;20449;-55
2024/04/19 08:24:43;;;;;;;3.30;1.50;;;10.20;99.90;;;;;;4390747;27;20079;-56
2024/04/19 08:26:44;;;;;;;3.30;1.80;;;10.00;99.90;;;;;;4417299;26;20418;-56
2024/04/19 08:28:45;;;;;;;2.57;1.87;;;9.90;99.90;;;;;;4395425;26;20056;-55
2024/04/19 08:30:46;;;;;;;2.00;1.60;;;10.10;99.90;;;;;;4390115;26;20083;-58
2024/04/19 08:32:48;;;;;;;3.00;1.53;;;10.20;99.90;;;;;;4409925;26;20013;-57
2024/04/19 08:34:55;;;;;;;4.57;2.43;;;10.40;99.90;;;;;;4419602;26;20013;-57
2024/04/19 08:36:57;;;;;;;3.40;2.40;;;10.10;99.90;;;;;;4417536;26;20012;-60
2024/04/19 08:38:59;;;;;;;4.73;3.00;;;9.70;99.90;;;;;;4418515;26;20291;-55
2024/04/19 08:41:03;;;;;;;3.43;2.47;;;9.10;99.90;;;;;;4418155;26;20051;-53
2024/04/19 08:43:04;;;;;;;4.13;2.70;;;8.60;99.90;;;;;;4388582;26;20056;-60
2024/04/19 08:45:06;;;;;;;6.10;2.87;;;8.40;99.90;;;;;;4418642;26;20008;-57
2024/04/19 08:47:10;;;;;;;5.47;3.13;;;8.40;99.90;;;;;;4419242;26;20009;-55
2024/04/19 08:49:14;;;;;;;5.60;3.00;;;8.30;99.90;;;;;;4417972;26;20098;-59
2024/04/19 08:51:17;;;;;;;3.43;2.70;;;8.30;99.90;;;;;;4419951;26;20055;-59
2024/04/19 08:53:19;;;;;;;4.03;2.40;;;8.30;99.90;;;;;;4416150;26;20074;-57
2024/04/19 08:55:22;;;;;;;9.03;3.67;;;8.30;99.90;;;;;;4418570;26;20051;-57
2024/04/19 08:57:26;;;;;;;6.07;3.13;;;8.20;99.90;;;;;;4396308;26;20338;-55
2024/04/19 08:59:35;;;;;;;7.30;3.03;;;8.30;99.90;;;;;;4418319;26;20000;-56
2024/04/19 09:01:36;;;;;;;15.77;5.07;;;8.30;99.90;;;;;;4417044;26;20074;-58
2024/04/19 09:03:38;;;;;;;6.13;3.20;;;8.20;99.90;;;;;;4401273;26;20325;-59
2024/04/19 09:05:40;;;;;;;6.63;2.87;;;8.20;99.90;;;;;;4415502;26;20077;-54
2024/04/19 09:07:41;;;;;;;3.07;2.40;;;8.20;99.90;;;;;;4395177;26;20082;-59
2024/04/19 09:09:43;;;;;;;3.83;2.50;;;8.30;99.90;;;;;;4418739;26;20413;-56
2024/04/19 09:11:45;;;;;;;4.70;2.40;;;8.30;99.90;;;;;;4418341;26;20085;-55
2024/04/19 09:13:47;;;;;;;5.40;2.73;;;8.50;99.90;;;;;;4398122;26;20078;-59
2024/04/19 09:15:49;;;;;;;7.37;2.73;;;8.50;99.90;;;;;;4389969;27;20013;-58
2024/04/19 09:17:50;;;;;;;5.13;2.43;;;8.60;99.90;;;;;;4389430;27;20017;-54
2024/04/19 09:19:51;;;;;;;5.50;2.43;;;8.50;99.90;;;;;;4388315;27;20017;-55
2024/04/19 09:21:52;;;;;;;4.23;2.80;;;8.40;99.90;;;;;;4391072;26;20424;-57
2024/04/19 09:23:55;;;;;;;4.47;2.80;;;8.30;99.90;;;;;;4397656;26;20459;-56
2024/04/19 09:25:59;;;;;;;5.43;2.97;;;8.30;99.90;;;;;;4390284;27;20017;-57
2024/04/19 09:28:01;;;;;;;6.03;2.70;;;8.20;99.90;;;;;;4388476;27;20075;-53
2024/04/19 09:30:02;;;;;;;2.97;2.47;;;8.00;99.90;;;;;;4391231;27;20010;-57
2024/04/19 09:32:05;;;;;;;6.37;2.27;;;8.00;99.90;;;;;;4391767;26;20001;-57
2024/04/19 09:34:06;;;;;;;4.63;2.50;;;8.10;99.90;;;;;;4389050;27;20084;-59
2024/04/19 09:36:08;;;;;;;4.70;2.50;;;8.10;99.90;;;;;;4388582;26;20086;-57
2024/04/19 09:38:10;;;;;;;4.03;2.47;;;8.20;99.90;;;;;;4400419;26;20001;-56
2024/04/19 09:40:11;;;;;;;5.53;2.90;;;8.30;99.90;;;;;;4417873;26;20120;-57
2024/04/19 09:42:13;;;;;;;4.10;2.90;;;8.50;99.90;;;;;;4419025;26;20419;-57
2024/04/19 09:44:15;;;;;;;4.20;2.70;;;8.50;99.90;;;;;;4392713;26;20017;-58
2024/04/19 09:46:23;;;;;;;3.00;2.70;;;8.60;99.90;;;;;;4388301;26;20447;-59
2024/04/19 09:48:30;;;;;;;6.37;2.50;;;8.40;99.90;;;;;;4389973;27;20013;-55
2024/04/19 09:50:34;;;;;;;4.87;2.50;;;8.50;99.90;;;;;;4388877;26;20006;-56
2024/04/19 09:52:38;;;;;;;7.07;2.50;;;8.60;99.90;;;;;;4390013;26;20453;-58
2024/04/19 09:54:41;;;;;;;4.13;2.23;;;8.60;99.90;;;;;;4390071;27;20412;-58
2024/04/19 09:56:56;;;;;;;3.90;2.30;;;8.60;99.90;;;;;;4390622;26;20017;-54
2024/04/19 09:58:59;;;;;;;6.17;2.53;;;8.60;99.90;;;;;;4397982;26;20013;-59
2024/04/19 10:01:01;;;;;;;4.30;2.63;;;8.70;99.90;;;;;;4415522;26;20005;-57
2024/04/19 10:03:08;;;;;;;6.90;3.10;;;8.80;99.90;;;;;;4412031;26;20086;-55
2024/04/19 10:05:11;;;;;;;5.23;3.10;;;8.90;99.90;;;;;;4389323;27;20412;-58
2024/04/19 10:07:14;;;;;;;5.13;2.57;;;9.00;99.90;;;;;;4387753;27;20006;-55
2024/04/19 10:09:27;;;;;;;28.23;13.37;;;9.10;99.90;;;;;;4389136;27;20107;-58
2024/04/19 10:11:28;;;;;;;4.33;2.80;;;9.00;99.90;;;;;;4387580;27;20506;-57
2024/04/19 10:13:30;;;;;;;3.90;2.80;;;9.00;99.90;;;;;;4388783;27;20013;-56
2024/04/19 10:15:32;;;;;;;4.23;3.17;;;9.10;99.90;;;;;;4404715;26;20081;-57
2024/04/19 10:17:33;;;;;;;3.70;2.63;;;9.30;99.90;;;;;;4416155;26;20001;-56
2024/04/19 10:19:35;;;;;;;39.90;13.93;;;9.60;99.90;;;;;;4405030;26;20466;-55
2024/04/19 10:21:39;;;;;;;51.00;24.70;;;9.80;99.90;;;;;;4387332;26;20083;-57
2024/04/19 10:23:40;;;;;;;21.77;10.67;;;10.00;99.90;;;;;;4407578;26;20146;-54
2024/04/19 10:25:44;;;;;;;101.37;37.37;;;10.20;99.90;;;;;;4394384;26;20657;-57
2024/04/19 10:27:46;;;;;;;6.77;3.57;;;10.70;99.90;;;;;;4382921;27;20013;-56
2024/04/19 10:29:50;;;;;;;13.00;6.30;;;10.70;99.90;;;;;;4414038;26;20392;-59
2024/04/19 10:31:53;;;;;;;22.43;9.23;;;10.70;99.90;;;;;;4417271;26;20012;-57
2024/04/19 10:33:54;;;;;;;7.20;3.80;;;10.90;99.90;;;;;;4415883;26;20464;-56
2024/04/19 10:35:56;;;;;;;46.77;19.23;;;10.70;99.90;;;;;;4416494;26;20105;-55
2024/04/19 10:37:59;;;;;;;9.13;4.53;;;10.40;99.90;;;;;;4416554;26;20005;-58
2024/04/19 10:40:00;;;;;;;11.43;7.13;;;10.30;99.90;;;;;;4417162;26;20078;-56
2024/04/19 10:42:02;;;;;;;7.37;3.87;;;10.50;99.90;;;;;;4415516;26;20005;-59
2024/04/19 10:44:12;;;;;;;6.17;2.60;;;10.90;99.90;;;;;;4419001;26;20419;-58
2024/04/19 10:46:15;;;;;;;4.93;2.73;;;10.90;99.90;;;;;;4390898;26;20013;-56